Aérodrome :
LOGIN :

S'inscrire | Disclaimer

   EN    FR    IT 

 










Légende :    VFR   VFR Marginal   IFR   IFR Intensif   IFR Très Intensif
Visi : 
Plafond : 
>= 8 km
>= 3000ft
5 à 8 km
1000 à 3000 ft
1500m à 5 km
500 à 1000 ft
800 à 1500m
200 à 500 ft
< 800m
< 200 ft
Symboles :   Orages  Brouillard  Fortes neiges  Fortes précipitations  Vent > 20 kt
SIGMETs :   Divers  Orages  Givrage  Turbulence  Onde Orograph.  Cendres Volcan.






- Altitude de l'aérodrome : 76 ft
- Code IATA : KID


ESMK - Kristianstad

DERNIER METAR :
  • 180550Z 09015KT 0750 R01/P2000N R19/P2000N FG VV002 08/08 Q1010

METARs EXPIRÉS :
  • 180520Z 09014KT 0700 R01/P2000N R19/P2000N FG VV001 08/08 Q1010
  • 180450Z 09015KT 0500 R01/1600N R19/1900N FG VV002 08/08 Q1010
  • 180420Z AUTO 09013KT 0500 R01/1600N R19/1900N FG VV001 08/08 Q1010
  • 180350Z AUTO 09012KT 0600 R01/1800N R19/P2000N FG VV001 08/08 Q1011
  • 180320Z AUTO 09014KT 1100 R01/P2000N R19/P2000N -RA VV002 08/08 Q1011

TAF TAF ESMK
Valide du 18 à 06h jusqu'au 18 à 15h UTC


180503Z 1806/1815 09012KT 0500 FG VV001
TEMPO 1806/1815 4000 BR BKN008



MET'MAP, la Météo Aéronautique d'un coup d'oeil ! - Copyright ORBIFLY Décembre 2007 - Disclaimer

ORBIFLY MET'MAP TEAM :

Programmation & Développement : Alexandra Zaïnal
Conception & Développement : Baudouin d'Aumeries
Co-Programmation & Développement : Marc-Olivier Méhu
Soutien technique & logistique : Manuel Goepfert

Contact : metmap@orbifly.com




SOURCES & CREDITS :

   NOAA